Terminal Aerodrome Forecast
Issued by NWS

Home | Current Version | Previous Version | Text Only | Print | Product List | Glossary On
Versions: 1 2 3 4 5 6 7 8 9 10 11 12 13 14 15 16 17 18
000
FTUS44 KLIX 150500
TAFGPT
TAF
KGPT 150525Z 1506/1606 00000KT P6SM SKC
     FM151400 09006KT P6SM SCT025
     FM151600 12007KT P6SM SCT035
      TEMPO 1518/1522 VRB25KT 2SM TSRA BKN025CB
     FM160000 13004KT P6SM FEW045 SCT100=

USA.gov is the U.S. government's official web portal to all federal, state and local government web resources and services.